createdAt,value
2019-01-27T00:01:46.462Z,8.10
2019-01-27T00:04:13.830Z,9.00
2019-01-27T00:06:41.142Z,8.40
2019-01-27T00:09:09.316Z,8.70
2019-01-27T00:11:36.651Z,8.45
2019-01-27T00:14:03.969Z,8.35
2019-01-27T00:16:31.265Z,8.75
2019-01-27T00:18:58.567Z,9.40
2019-01-27T00:21:25.928Z,8.85
2019-01-27T00:23:53.258Z,8.35
2019-01-27T00:26:20.560Z,7.85
2019-01-27T00:28:47.835Z,7.53
2019-01-27T00:31:15.152Z,8.08
2019-01-27T00:33:42.512Z,8.50
2019-01-27T00:36:09.809Z,9.10
2019-01-27T00:38:37.124Z,7.75
2019-01-27T00:41:04.406Z,8.05
2019-01-27T00:43:31.694Z,7.15
2019-01-27T00:45:59.023Z,7.53
2019-01-27T00:48:26.296Z,8.50
2019-01-27T00:50:53.631Z,8.15
2019-01-27T00:53:20.935Z,7.83
2019-01-27T00:55:48.230Z,9.85
2019-01-27T00:58:15.537Z,8.60
2019-01-27T01:00:42.834Z,10.10
2019-01-27T01:03:10.125Z,9.18
2019-01-27T01:05:37.581Z,8.90
2019-01-27T01:08:05.364Z,8.60
2019-01-27T01:10:32.653Z,8.63
2019-01-27T01:12:59.998Z,9.30
2019-01-27T01:15:27.257Z,9.45
2019-01-27T01:17:54.550Z,8.10
2019-01-27T01:20:22.533Z,8.60
2019-01-27T01:22:50.393Z,9.28
2019-01-27T01:25:19.068Z,8.98
2019-01-27T01:27:46.366Z,9.93
2019-01-27T01:30:15.250Z,9.50
2019-01-27T01:32:42.572Z,8.90
2019-01-27T01:35:10.333Z,9.00
2019-01-27T01:37:37.621Z,9.80
2019-01-27T01:40:06.580Z,9.75
2019-01-27T01:42:33.873Z,10.35
2019-01-27T01:45:01.176Z,12.13
2019-01-27T01:47:28.501Z,10.82
2019-01-27T01:49:55.797Z,11.78
2019-01-27T01:52:23.112Z,10.98
2019-01-27T01:54:50.415Z,13.25
2019-01-27T01:57:17.729Z,12.25
2019-01-27T01:59:45.035Z,12.73
2019-01-27T02:02:12.363Z,12.90
2019-01-27T02:04:39.687Z,13.03
2019-01-27T02:07:06.981Z,13.95
2019-01-27T02:09:34.278Z,14.18
2019-01-27T02:12:01.596Z,14.70
2019-01-27T02:14:28.929Z,15.18
2019-01-27T02:16:56.329Z,13.18
2019-01-27T02:19:23.649Z,16.70
2019-01-27T02:21:50.972Z,16.95
2019-01-27T02:24:18.264Z,14.07
2019-01-27T02:26:45.557Z,15.48
2019-01-27T02:29:12.873Z,14.87
2019-01-27T02:31:40.189Z,15.60
2019-01-27T02:34:07.486Z,14.75
2019-01-27T02:36:34.823Z,14.50
2019-01-27T02:39:02.115Z,15.90
2019-01-27T02:41:29.437Z,14.83
2019-01-27T02:43:56.751Z,15.35
2019-01-27T02:46:24.049Z,14.43
2019-01-27T02:48:51.353Z,15.98
2019-01-27T02:51:18.673Z,14.55
2019-01-27T02:53:45.966Z,14.35
2019-01-27T02:56:13.294Z,12.18
2019-01-27T02:58:40.612Z,13.45
2019-01-27T03:01:07.911Z,12.30
2019-01-27T03:03:35.242Z,13.75
2019-01-27T03:06:04.183Z,13.13
2019-01-27T03:08:33.382Z,12.15
2019-01-27T03:11:00.686Z,11.97
2019-01-27T03:13:27.986Z,14.73
2019-01-27T03:15:55.293Z,11.88
2019-01-27T03:18:22.593Z,15.50
2019-01-27T03:20:49.917Z,14.45
2019-01-27T03:23:17.227Z,14.58
2019-01-27T03:25:44.546Z,15.65
2019-01-27T03:28:11.832Z,14.10
2019-01-27T03:30:39.163Z,14.87
2019-01-27T03:33:06.461Z,13.88
2019-01-27T03:35:33.778Z,14.90
2019-01-27T03:38:01.099Z,14.58
2019-01-27T03:40:28.400Z,15.05
2019-01-27T03:42:55.693Z,14.53
2019-01-27T03:45:23.282Z,15.25
2019-01-27T03:47:50.573Z,14.98
2019-01-27T03:50:21.012Z,14.75
2019-01-27T03:52:48.239Z,14.68
2019-01-27T03:55:16.824Z,13.60
2019-01-27T03:57:44.129Z,14.90
2019-01-27T04:00:13.053Z,15.60
2019-01-27T04:02:40.365Z,15.08
2019-01-27T04:05:09.986Z,14.83
2019-01-27T04:07:37.656Z,14.00
2019-01-27T04:10:06.610Z,14.53
2019-01-27T04:12:34.269Z,13.35
2019-01-27T04:15:01.893Z,12.95
2019-01-27T04:17:29.347Z,14.98
2019-01-27T04:19:56.611Z,13.88
2019-01-27T04:22:24.298Z,13.98
2019-01-27T04:24:51.595Z,13.32
2019-01-27T04:27:18.941Z,12.70
2019-01-27T04:29:46.270Z,13.80
2019-01-27T04:32:13.577Z,14.10
2019-01-27T04:34:40.964Z,11.53
2019-01-27T04:37:08.261Z,11.78
2019-01-27T04:39:35.678Z,13.20
2019-01-27T04:42:03.444Z,10.35
2019-01-27T04:44:31.001Z,12.70
2019-01-27T04:46:58.306Z,11.75
2019-01-27T04:49:25.631Z,11.20
2019-01-27T04:51:53.030Z,10.05
2019-01-27T04:54:20.350Z,11.50
2019-01-27T04:56:47.879Z,11.80
2019-01-27T04:59:15.178Z,11.05
2019-01-27T05:01:42.894Z,13.08
2019-01-27T05:04:11.886Z,10.63
2019-01-27T05:06:39.311Z,10.40
2019-01-27T05:09:08.619Z,13.65
2019-01-27T05:11:35.914Z,10.78
2019-01-27T05:14:03.228Z,11.10
2019-01-27T05:16:30.538Z,10.68
2019-01-27T05:18:57.867Z,11.20
2019-01-27T05:21:25.176Z,12.82
2019-01-27T05:23:52.568Z,11.15
2019-01-27T05:26:19.882Z,10.53
2019-01-27T05:28:47.590Z,10.18
2019-01-27T05:31:14.884Z,11.15
2019-01-27T05:33:42.189Z,10.95
2019-01-27T05:36:09.748Z,11.45
2019-01-27T05:38:37.038Z,10.95
2019-01-27T05:41:04.458Z,10.82
2019-01-27T05:43:33.050Z,12.63
2019-01-27T05:46:00.356Z,11.57
2019-01-27T05:48:27.677Z,11.40
2019-01-27T05:50:54.966Z,11.35
2019-01-27T05:53:22.273Z,11.85
2019-01-27T05:55:49.586Z,11.93
2019-01-27T05:58:16.886Z,12.00
2019-01-27T06:00:45.847Z,14.98
2019-01-27T06:03:13.140Z,12.80
2019-01-27T06:05:40.442Z,12.20
2019-01-27T06:08:07.770Z,12.60
2019-01-27T06:10:35.090Z,12.75
2019-01-27T06:13:02.411Z,14.47
2019-01-27T06:15:29.711Z,10.90
2019-01-27T06:17:57.008Z,12.65
2019-01-27T06:20:24.330Z,14.40
2019-01-27T06:22:51.627Z,14.53
2019-01-27T06:25:19.228Z,11.05
2019-01-27T06:27:46.667Z,11.40
2019-01-27T06:30:21.392Z,14.35
2019-01-27T06:32:56.194Z,13.88
2019-01-27T06:35:23.500Z,14.07
2019-01-27T06:37:50.830Z,13.32
2019-01-27T06:40:18.119Z,15.90
2019-01-27T06:42:45.441Z,14.05
2019-01-27T06:45:12.734Z,14.78
2019-01-27T06:47:40.037Z,14.03
2019-01-27T06:50:09.033Z,13.35
2019-01-27T06:52:36.325Z,13.30
2019-01-27T06:55:04.994Z,14.58
2019-01-27T06:57:32.313Z,13.68
2019-01-27T07:00:01.255Z,14.28
2019-01-27T07:02:30.224Z,13.43
2019-01-27T07:04:59.180Z,13.83
2019-01-27T07:07:43.496Z,13.68
2019-01-27T07:10:15.435Z,13.98
2019-01-27T07:12:44.361Z,12.65
2019-01-27T07:15:25.248Z,12.60
2019-01-27T07:17:54.242Z,13.48
2019-01-27T07:20:23.202Z,18.07
2019-01-27T07:23:08.570Z,12.05
2019-01-27T07:25:49.670Z,15.38
2019-01-27T07:28:35.265Z,13.85
2019-01-27T07:31:07.390Z,15.45
2019-01-27T07:33:36.340Z,13.70
2019-01-27T07:36:05.275Z,13.83
2019-01-27T07:38:43.479Z,10.82
2019-01-27T07:41:12.409Z,14.53
2019-01-27T07:43:53.466Z,13.80
2019-01-27T07:46:22.401Z,13.05
2019-01-27T07:49:00.131Z,12.93
2019-01-27T07:51:31.814Z,13.20
2019-01-27T07:54:17.490Z,13.10
2019-01-27T07:56:48.977Z,12.70
2019-01-27T07:59:26.972Z,13.93
2019-01-27T08:01:58.826Z,12.90
2019-01-27T08:04:36.846Z,12.45
2019-01-27T08:07:11.557Z,13.15
2019-01-27T08:09:57.066Z,10.40
2019-01-27T08:12:31.701Z,11.97
2019-01-27T08:15:00.666Z,10.23
2019-01-27T08:17:32.578Z,10.43
2019-01-27T08:20:01.509Z,10.32
2019-01-27T08:22:33.265Z,11.55
2019-01-27T08:25:10.752Z,12.25
2019-01-27T08:27:45.161Z,11.95
2019-01-27T08:30:31.727Z,11.05
2019-01-27T08:33:16.014Z,11.97
2019-01-27T08:35:44.972Z,10.28
2019-01-27T08:38:16.807Z,10.75
2019-01-27T08:40:48.728Z,9.00
2019-01-27T08:43:29.479Z,10.10
2019-01-27T08:45:58.413Z,10.23
2019-01-27T08:48:25.730Z,10.30
2019-01-27T08:50:53.045Z,9.68
2019-01-27T08:53:20.350Z,10.98
2019-01-27T08:55:47.632Z,9.48
2019-01-27T08:58:14.948Z,9.60
2019-01-27T09:00:42.939Z,9.53
2019-01-27T09:03:11.874Z,9.50
2019-01-27T09:05:57.550Z,10.40
2019-01-27T09:08:29.194Z,11.10
2019-01-27T09:11:04.148Z,9.90
2019-01-27T09:13:41.936Z,10.58
2019-01-27T09:16:13.594Z,11.05
2019-01-27T09:18:48.547Z,10.75
2019-01-27T09:21:20.527Z,10.40
2019-01-27T09:23:58.763Z,10.18
2019-01-27T09:26:27.726Z,10.18
2019-01-27T09:29:05.823Z,8.20
2019-01-27T09:31:34.789Z,10.25
2019-01-27T09:34:20.312Z,10.50
2019-01-27T09:36:52.243Z,9.63
2019-01-27T09:39:23.582Z,9.30
2019-01-27T09:41:57.969Z,8.73
2019-01-27T09:44:39.015Z,9.05
2019-01-27T09:47:16.784Z,9.65
2019-01-27T09:49:54.641Z,8.43
2019-01-27T09:52:32.838Z,7.95
2019-01-27T09:55:16.602Z,8.75
2019-01-27T09:57:45.562Z,8.83
2019-01-27T10:00:30.910Z,8.65
2019-01-27T10:02:59.840Z,8.85
2019-01-27T10:05:28.791Z,8.75
2019-01-27T10:07:57.721Z,8.65
2019-01-27T10:10:32.917Z,8.08
2019-01-27T10:13:13.825Z,9.28
2019-01-27T10:15:45.518Z,9.13
2019-01-27T10:18:20.381Z,8.48
2019-01-27T10:20:52.244Z,9.35
2019-01-27T10:23:21.175Z,8.18
2019-01-27T10:25:50.108Z,9.00
2019-01-27T10:28:31.288Z,9.63
2019-01-27T10:31:09.223Z,7.97
2019-01-27T10:33:41.344Z,8.55
2019-01-27T10:36:28.635Z,12.47
2019-01-27T10:39:00.316Z,14.45
2019-01-27T10:41:29.250Z,20.68
2019-01-27T10:44:00.904Z,8.90
2019-01-27T10:46:32.580Z,16.12
2019-01-27T10:49:10.301Z,9.78
2019-01-27T10:51:41.965Z,11.70
2019-01-27T10:54:10.899Z,8.28
2019-01-27T10:56:48.887Z,15.18
2019-01-27T10:59:20.792Z,17.37
2019-01-27T11:02:08.081Z,14.07
2019-01-27T11:04:39.651Z,10.23
2019-01-27T11:07:14.622Z,11.00
2019-01-27T11:09:49.315Z,9.55
2019-01-27T11:12:34.610Z,18.07
2019-01-27T11:15:03.542Z,17.12
2019-01-27T11:17:38.468Z,8.70
2019-01-27T11:20:11.851Z,12.28
2019-01-27T11:22:43.791Z,7.75
2019-01-27T11:25:15.820Z,18.67
2019-01-27T11:27:47.809Z,12.00
2019-01-27T11:30:16.763Z,15.83
2019-01-27T11:32:48.862Z,8.83
2019-01-27T11:35:29.318Z,19.07
2019-01-27T11:38:10.248Z,30.05
2019-01-27T11:40:42.177Z,8.93
2019-01-27T11:43:11.117Z,9.63
2019-01-27T11:45:55.161Z,8.18
2019-01-27T11:48:29.985Z,14.63
2019-01-27T11:50:58.881Z,14.90
2019-01-27T11:53:26.192Z,7.00
2019-01-27T11:55:53.495Z,10.45
2019-01-27T11:58:20.826Z,12.65
2019-01-27T12:00:49.886Z,16.60
2019-01-27T12:03:17.176Z,9.65
2019-01-27T12:05:44.503Z,7.97
2019-01-27T12:08:11.790Z,6.75
2019-01-27T12:10:39.116Z,6.10
2019-01-27T12:13:06.418Z,10.28
2019-01-27T12:15:33.723Z,8.05
2019-01-27T12:18:01.025Z,9.05
2019-01-27T12:20:28.314Z,6.30
2019-01-27T12:22:55.634Z,6.50
2019-01-27T12:25:22.942Z,21.50
2019-01-27T12:27:50.278Z,10.50
2019-01-27T12:30:19.195Z,15.50
2019-01-27T12:32:46.503Z,28.25
2019-01-27T12:35:13.829Z,13.53
2019-01-27T12:37:41.115Z,8.28
2019-01-27T12:40:10.215Z,12.55
2019-01-27T12:42:37.523Z,27.15
2019-01-27T12:45:06.714Z,14.20
2019-01-27T12:47:34.149Z,10.65
2019-01-27T12:50:01.448Z,5.17
2019-01-27T12:52:28.740Z,7.50
2019-01-27T12:54:56.054Z,5.40
2019-01-27T12:57:23.416Z,6.62
2019-01-27T12:59:50.725Z,6.20
2019-01-27T13:02:18.008Z,5.53
2019-01-27T13:04:45.322Z,5.33
2019-01-27T13:07:12.608Z,6.10
2019-01-27T13:09:39.926Z,5.20
2019-01-27T13:12:07.218Z,4.70
2019-01-27T13:14:34.509Z,5.03
2019-01-27T13:17:01.812Z,4.65
2019-01-27T13:19:29.097Z,4.33
2019-01-27T13:21:56.416Z,4.50
2019-01-27T13:24:23.741Z,4.80
2019-01-27T13:26:51.003Z,15.15
2019-01-27T13:29:18.326Z,16.23
2019-01-27T13:31:45.624Z,12.23
2019-01-27T13:34:12.921Z,10.38
2019-01-27T13:36:40.222Z,5.28
2019-01-27T13:39:07.505Z,4.35
2019-01-27T13:41:34.836Z,4.35
2019-01-27T13:44:02.230Z,5.00
2019-01-27T13:46:29.530Z,6.10
2019-01-27T13:48:56.834Z,13.20
2019-01-27T13:51:24.135Z,9.05
2019-01-27T13:53:51.451Z,6.53
2019-01-27T13:56:18.743Z,6.40
2019-01-27T13:58:46.045Z,7.50
2019-01-27T14:01:13.359Z,5.70
2019-01-27T14:03:40.655Z,5.08
2019-01-27T14:06:07.980Z,5.17
2019-01-27T14:08:35.272Z,5.03
2019-01-27T14:11:02.641Z,4.80
2019-01-27T14:13:29.945Z,5.22
2019-01-27T14:15:57.233Z,5.10
2019-01-27T14:18:24.554Z,4.17
2019-01-27T14:20:51.843Z,5.35
2019-01-27T14:23:19.140Z,5.00
2019-01-27T14:25:46.451Z,5.42
2019-01-27T14:28:13.742Z,6.25
2019-01-27T14:30:42.426Z,5.90
2019-01-27T14:33:09.728Z,5.08
2019-01-27T14:35:37.016Z,6.42
2019-01-27T14:38:04.335Z,4.60
2019-01-27T14:40:31.626Z,4.55
2019-01-27T14:43:00.833Z,5.05
2019-01-27T14:45:31.994Z,4.33
2019-01-27T14:48:00.251Z,4.05
2019-01-27T14:50:31.905Z,3.98
2019-01-27T14:52:59.222Z,4.50
2019-01-27T14:55:26.543Z,3.95
2019-01-27T14:57:53.829Z,4.60
2019-01-27T15:00:22.714Z,3.80
2019-01-27T15:02:50.009Z,4.30
2019-01-27T15:05:17.322Z,4.17
2019-01-27T15:07:44.644Z,3.67
2019-01-27T15:10:15.830Z,4.05
2019-01-27T15:12:43.109Z,4.00
2019-01-27T15:15:11.763Z,4.50
2019-01-27T15:17:39.083Z,4.40
2019-01-27T15:20:11.168Z,4.50
2019-01-27T15:22:38.457Z,4.35
2019-01-27T15:25:07.452Z,4.05
2019-01-27T15:27:34.742Z,4.85
2019-01-27T15:30:02.057Z,3.90
2019-01-27T15:32:29.414Z,3.98
2019-01-27T15:34:56.701Z,4.28
2019-01-27T15:37:24.033Z,4.40
2019-01-27T15:39:51.312Z,4.25
2019-01-27T15:42:18.643Z,4.10
2019-01-27T15:44:45.951Z,4.47
2019-01-27T15:47:13.260Z,3.92
2019-01-27T15:49:40.567Z,4.30
2019-01-27T15:52:07.878Z,5.70
2019-01-27T15:54:37.418Z,4.15
2019-01-27T15:57:04.719Z,4.67
2019-01-27T15:59:32.130Z,3.72
2019-01-27T16:01:59.427Z,4.78
2019-01-27T16:04:26.737Z,4.80
2019-01-27T16:06:54.045Z,4.53
2019-01-27T16:09:21.325Z,4.22
2019-01-27T16:11:48.674Z,5.10
2019-01-27T16:14:15.950Z,4.37
2019-01-27T16:16:43.267Z,4.17
2019-01-27T16:19:10.565Z,4.20
2019-01-27T16:21:37.886Z,4.42
2019-01-27T16:24:06.808Z,4.90
2019-01-27T16:26:34.158Z,4.40
2019-01-27T16:29:01.451Z,5.35
2019-01-27T16:31:32.899Z,4.40
2019-01-27T16:34:11.104Z,4.60
2019-01-27T16:36:38.439Z,4.45
2019-01-27T16:39:07.412Z,4.22
2019-01-27T16:41:34.695Z,4.20
2019-01-27T16:44:01.990Z,4.97
2019-01-27T16:46:29.297Z,4.80
2019-01-27T16:48:56.601Z,4.70
2019-01-27T16:51:23.906Z,4.40
2019-01-27T16:53:51.191Z,4.87
2019-01-27T16:56:18.519Z,5.83
2019-01-27T16:58:45.830Z,5.80
2019-01-27T17:01:13.131Z,5.65
2019-01-27T17:03:40.450Z,6.25
2019-01-27T17:06:13.386Z,5.05
2019-01-27T17:08:40.681Z,6.60
2019-01-27T17:11:08.006Z,4.70
2019-01-27T17:13:36.181Z,5.70
2019-01-27T17:16:04.297Z,6.75
2019-01-27T17:18:31.615Z,6.58
2019-01-27T17:20:58.914Z,6.62
2019-01-27T17:23:26.207Z,5.45
2019-01-27T17:25:53.777Z,5.20
2019-01-27T17:28:21.112Z,4.50
2019-01-27T17:30:48.418Z,5.17
2019-01-27T17:33:15.781Z,6.80
2019-01-27T17:35:43.166Z,8.33
2019-01-27T17:38:10.469Z,8.38
2019-01-27T17:40:37.759Z,7.90
2019-01-27T17:43:05.073Z,6.90
2019-01-27T17:45:32.356Z,6.00
2019-01-27T17:47:59.645Z,9.35
2019-01-27T17:50:26.976Z,7.70
2019-01-27T17:52:54.285Z,6.45
2019-01-27T17:55:35.781Z,7.05
2019-01-27T17:58:07.409Z,8.10
2019-01-27T18:00:52.968Z,7.70
2019-01-27T18:03:38.330Z,5.60
2019-01-27T18:06:09.703Z,6.78
2019-01-27T18:08:41.569Z,5.83
2019-01-27T18:11:13.624Z,5.70
2019-01-27T18:13:41.097Z,6.60
2019-01-27T18:16:10.079Z,5.78
2019-01-27T18:18:37.375Z,7.12
2019-01-27T18:21:04.665Z,6.45
2019-01-27T18:23:32.165Z,6.55
2019-01-27T18:25:59.460Z,6.72
2019-01-27T18:28:26.752Z,6.08
2019-01-27T18:30:54.066Z,6.85
2019-01-27T18:33:21.388Z,6.78
2019-01-27T18:35:48.688Z,7.03
2019-01-27T18:38:15.976Z,7.70
2019-01-27T18:40:43.313Z,6.75
2019-01-27T18:43:10.607Z,8.40
2019-01-27T18:45:37.892Z,9.08
2019-01-27T18:48:05.217Z,6.00
2019-01-27T18:50:32.515Z,6.10
2019-01-27T18:53:01.437Z,7.85
2019-01-27T18:55:42.522Z,8.88
2019-01-27T18:58:20.502Z,6.62
2019-01-27T19:00:55.323Z,7.70
2019-01-27T19:03:26.963Z,6.45
2019-01-27T19:06:01.951Z,5.92
2019-01-27T19:08:49.086Z,5.35
2019-01-27T19:11:18.022Z,5.90
2019-01-27T19:13:49.691Z,5.42
2019-01-27T19:16:18.651Z,6.60
2019-01-27T19:19:02.656Z,5.67
2019-01-27T19:21:40.581Z,6.92
2019-01-27T19:24:09.535Z,7.15
2019-01-27T19:26:55.135Z,6.85
2019-01-27T19:29:27.056Z,5.80
2019-01-27T19:31:55.999Z,6.08
2019-01-27T19:34:36.959Z,6.40
2019-01-27T19:37:24.316Z,5.83
2019-01-27T19:40:08.333Z,6.65
2019-01-27T19:42:37.300Z,6.53
2019-01-27T19:45:10.949Z,5.40
2019-01-27T19:47:42.577Z,6.00
2019-01-27T19:50:29.607Z,7.12
2019-01-27T19:53:04.482Z,7.80
2019-01-27T19:55:33.427Z,6.30
2019-01-27T19:58:05.070Z,6.65
2019-01-27T20:00:49.256Z,6.40
2019-01-27T20:03:18.192Z,6.85
2019-01-27T20:05:59.238Z,7.80
2019-01-27T20:08:28.164Z,6.80
2019-01-27T20:11:12.431Z,7.50
2019-01-27T20:13:41.361Z,6.67
2019-01-27T20:16:25.538Z,7.12
2019-01-27T20:19:09.254Z,7.30
2019-01-27T20:21:38.210Z,7.83
2019-01-27T20:24:07.138Z,6.53
2019-01-27T20:26:36.071Z,6.83
2019-01-27T20:29:05.028Z,7.33
2019-01-27T20:31:50.647Z,6.37
2019-01-27T20:34:19.600Z,7.97
2019-01-27T20:36:48.646Z,7.00
2019-01-27T20:39:17.608Z,6.35
2019-01-27T20:42:03.186Z,6.33
2019-01-27T20:44:41.399Z,6.67
2019-01-27T20:47:16.226Z,6.97
2019-01-27T20:49:45.185Z,6.50
2019-01-27T20:52:16.789Z,6.95
2019-01-27T20:54:45.753Z,13.13
2019-01-27T20:57:14.755Z,8.95
2019-01-27T20:59:46.435Z,7.80
2019-01-27T21:02:15.350Z,8.20
2019-01-27T21:05:00.769Z,6.60
2019-01-27T21:07:32.217Z,7.28
2019-01-27T21:10:12.441Z,8.70
2019-01-27T21:12:40.852Z,6.60
2019-01-27T21:15:13.979Z,7.87
2019-01-27T21:17:42.910Z,8.23
2019-01-27T21:20:11.990Z,6.92
2019-01-27T21:22:39.320Z,9.30
2019-01-27T21:25:08.231Z,7.10
2019-01-27T21:27:35.550Z,6.70
2019-01-27T21:30:02.844Z,5.70
2019-01-27T21:32:30.150Z,6.28
2019-01-27T21:34:57.449Z,6.45
2019-01-27T21:37:24.743Z,6.00
2019-01-27T21:39:52.066Z,5.70
2019-01-27T21:42:19.351Z,6.10
2019-01-27T21:44:46.632Z,6.90
2019-01-27T21:47:13.942Z,7.30
2019-01-27T21:49:41.230Z,6.90
2019-01-27T21:52:08.523Z,6.33
2019-01-27T21:54:35.839Z,6.83
2019-01-27T21:57:03.153Z,6.45
2019-01-27T21:59:30.442Z,5.60
2019-01-27T22:01:57.734Z,5.67
2019-01-27T22:04:25.037Z,5.58
2019-01-27T22:06:52.330Z,5.65
2019-01-27T22:09:19.636Z,6.00
2019-01-27T22:11:46.963Z,6.30
2019-01-27T22:14:14.281Z,6.20
2019-01-27T22:16:41.572Z,6.20
2019-01-27T22:19:08.873Z,6.10
2019-01-27T22:21:36.243Z,6.00
2019-01-27T22:24:03.478Z,5.83
2019-01-27T22:26:30.798Z,5.92
2019-01-27T22:28:58.086Z,5.30
2019-01-27T22:31:25.387Z,5.33
2019-01-27T22:33:52.714Z,5.47
2019-01-27T22:36:20.011Z,5.65
2019-01-27T22:38:47.318Z,5.53
2019-01-27T22:41:14.648Z,5.45
2019-01-27T22:43:41.943Z,5.62
2019-01-27T22:46:09.229Z,5.90
2019-01-27T22:48:36.551Z,5.78
2019-01-27T22:51:03.916Z,5.40
2019-01-27T22:53:31.210Z,5.50
2019-01-27T22:55:58.535Z,5.60
2019-01-27T22:58:25.839Z,5.67
2019-01-27T23:01:01.785Z,5.40
2019-01-27T23:03:29.841Z,6.17
2019-01-27T23:05:57.157Z,6.00
2019-01-27T23:08:24.458Z,5.90
2019-01-27T23:10:51.766Z,5.87
2019-01-27T23:13:19.068Z,5.75
2019-01-27T23:15:46.357Z,6.10
2019-01-27T23:18:13.642Z,5.30
2019-01-27T23:20:40.958Z,6.30
2019-01-27T23:23:08.241Z,5.30
2019-01-27T23:25:35.519Z,5.72
2019-01-27T23:28:02.900Z,5.17
2019-01-27T23:30:30.190Z,5.28
2019-01-27T23:32:57.478Z,5.50
2019-01-27T23:35:24.783Z,5.22
2019-01-27T23:37:52.070Z,5.30
2019-01-27T23:40:19.400Z,5.50
2019-01-27T23:42:46.708Z,5.75
2019-01-27T23:45:13.978Z,5.72
2019-01-27T23:47:41.258Z,5.42
2019-01-27T23:50:09.141Z,5.60
2019-01-27T23:52:36.435Z,5.90
2019-01-27T23:55:04.690Z,5.50
2019-01-27T23:57:32.015Z,6.00
2019-01-27T23:59:59.302Z,6.25
